Flight Track Log - Related Links

Times and Time Zones

All times are in EDT time to prevent confusion due to time zone crossing. See the N34996 flight status page for this flight to view local times or setup timezone preferences in your user account.

Time Position Orientation Groundspeed Altitude Reporting Facility
EDT Latitude Longitude Course Direction KTS MPH feet Rate Location/Type
Sat 05:40:39 PM 31.4858 -94.6853 157° South 95 109 1,800  Level Houston Center
Sat 05:41:41 PM 31.4581 -94.6728 159° South 93 107 2,300 390 Climbing Houston Center
Sat 05:42:42 PM 31.4372 -94.6636 159° South 87 100 2,600 293 Climbing Houston Center
Sat 05:43:44 PM 31.4142 -94.6531 159° South 86 99 2,900 242 Climbing Houston Center
Sat 05:44:46 PM 31.3881 -94.6406 158° South 93 107 3,100 195 Climbing Houston Center
Sat 05:45:47 PM 31.3619 -94.6297 160° South 97 112 3,300 341 Climbing Houston Center
Sat 05:46:00 PM 31.4036 -94.7645 157° South  Level Estimated
Sat 05:46:49 PM 31.3386 -94.6203 161° South 94 108 3,800  Level Houston Center
Sat 05:47:51 PM 31.3194 -94.6086 153° Southeast 84 97 3,900 146 Climbing Houston Center
Sat 05:48:52 PM 31.2967 -94.5981 158° South 85 98 4,100 244 Climbing Houston Center
Sat 05:49:54 PM 31.2753 -94.5894 161° South 83 96 4,400 293 Climbing Houston Center
Sat 05:50:55 PM 31.2494 -94.5786 160° South 81 93 4,700 244 Climbing Houston Center
Sat 05:51:57 PM 31.2264 -94.5667 156° South 88 101 4,900 194 Climbing Houston Center
Sat 05:52:59 PM 31.2044 -94.5583 162° South 84 97 5,100 244 Climbing Houston Center
Sat 05:54:00 PM 31.1794 -94.5475 160° South 94 108 5,400 341 Climbing Houston Center
Sat 05:55:02 PM 31.1564 -94.5361 157° South 89 102 5,800 341 Climbing Houston Center
Sat 05:56:03 PM 31.1367 -94.5267 158° South 77 89 6,100 293 Climbing Houston Center
Sat 05:57:05 PM 31.1131 -94.5186 164° South 86 99 6,400 290 Climbing Houston Center
Sat 05:58:07 PM 31.0861 -94.5061 158° South 100 115 6,700 244 Climbing Houston Center
Sat 05:59:08 PM 31.0597 -94.4933 157° South 102 117 6,900 146 Climbing Houston Center
Sat 06:00:10 PM 31.0294 -94.4814 161° South 97 112 7,000 49 Climbing Houston Center
Sat 06:01:11 PM 30.9978 -94.4664 158° South 114 131 7,000  Level Houston Center
Sat 06:02:13 PM 30.9667 -94.4539 161° South 118 136 7,000  Level Houston Center
Sat 06:03:15 PM 30.9353 -94.4397 159° South 120 138 7,000  Level Houston Center
Sat 06:04:16 PM 30.9036 -94.4264 160° South 121 139 7,000  Level Houston Center
Sat 06:05:18 PM 30.8725 -94.4131 160° South 120 138 7,000  Level Houston Center
Sat 06:06:19 PM 30.8417 -94.3992 159° South 118 136 7,000  Level Houston Center
Sat 06:07:21 PM 30.8086 -94.3853 160° South 125 144 7,000  Level Houston Center
Sat 06:08:23 PM 30.7706 -94.3686 159° South 123 142 7,000  Level Houston Center
Sat 06:09:24 PM 30.7389 -94.3556 160° South 120 138 7,000  Level Houston Center
Sat 06:10:26 PM 30.7106 -94.3425 158° South 124 143 7,000  Level Houston Center
Sat 06:11:05 PM 30.6847 -94.3319 161° South 123 142 7,000  Level Houston Center
Sat 06:11:27 PM 30.6725 -94.3264 159° South 123 142 7,000  Level Houston Center
Sat 06:12:12 PM 30.6475 -94.3175 163° South 124 143 7,000  Level Houston Center
Sat 06:12:29 PM 30.6406 -94.3119 145° Southeast 123 142 7,000  Level Houston Center
Sat 06:13:13 PM 30.6144 -94.3025 163° South 124 143 7,000 97 Level Houston Center
Sat 06:13:31 PM 30.6081 -94.2992 156° South 124 143 7,100  Climbing Houston Center
Sat 06:14:14 PM 30.5839 -94.2894 161° South 123 142 7,000 -98 Descending Houston Center
Sat 06:14:32 PM 30.5767 -94.2839 146° Southeast 123 142 7,000  Level Houston Center
Sat 06:15:15 PM 30.5508 -94.2744 163° South 122 140 7,000 97 Level Houston Center
Sat 06:15:34 PM 30.5450 -94.2717 158° South 121 139 7,100 98 Climbing Houston Center
Sat 06:16:16 PM 30.5158 -94.2597 161° South 125 144 7,100 -97 Level Houston Center
Sat 06:16:36 PM 30.5125 -94.2572 147° Southeast 123 142 7,000  Descending Houston Center
Sat 06:17:17 PM 30.4850 -94.2467 162° South 123 142 7,100  Climbing Houston Center
Sat 06:17:37 PM 30.4811 -94.2439 148° Southeast 122 140 7,000  Descending Houston Center
Sat 06:18:19 PM 30.4519 -94.2317 160° South 122 140 7,100 97 Climbing Houston Center
Sat 06:18:39 PM 30.4489 -94.2308 167° South 123 142 7,100  Level Houston Center
Sat 06:19:20 PM 30.4214 -94.2189 159° South 123 142 7,100  Level Houston Center
Sat 06:19:40 PM 30.4117 -94.2144 158° South 120 138 7,100  Level Houston Center
Sat 06:20:21 PM 30.3883 -94.2039 159° South 120 138 7,100 -97 Level Houston Center
Sat 06:20:42 PM 30.3803 -94.2014 165° South 120 138 7,000  Descending Houston Center
Sat 06:21:22 PM 30.3556 -94.1911 160° South 120 138 7,100 97 Climbing Houston Center
Sat 06:21:44 PM 30.3492 -94.1869 151° Southeast 121 139 7,100  Level Houston Center
Sat 06:22:23 PM 30.3269 -94.1781 161° South 107 123 7,100  Level Houston Center
Sat 06:22:45 PM 30.3206 -94.1753 159° South 112 129 7,100  Level Houston Center
Sat 06:23:24 PM 30.2983 -94.1672 163° South 111 128 7,100  Level Houston Center
Sat 06:23:47 PM 30.2922 -94.1633 151° Southeast 109 125 7,100 -98 Level Houston Center
Sat 06:24:25 PM 30.2678 -94.1544 163° South 112 129 7,000 -98 Descending Houston Center
Sat 06:24:48 PM 30.2622 -94.1508 151° Southeast 113 130 7,000 97 Level Houston Center
Sat 06:25:27 PM 30.2392 -94.1414 161° South 107 123 7,100 97 Climbing Houston Center
Sat 06:25:50 PM 30.2342 -94.1386 154° Southeast 110 127 7,100  Level Houston Center
Sat 06:26:28 PM 30.2106 -94.1281 159° South 108 124 7,100 -97 Level Houston Center
Sat 06:26:52 PM 30.2000 -94.1236 160° South 108 124 7,000  Descending Houston Center
Sat 06:27:29 PM 30.1817 -94.1150 158° South 101 116 7,100 98 Climbing Houston Center
Sat 06:27:53 PM 30.1731 -94.1125 166° South 106 122 7,100 -98 Level Houston Center
Sat 06:28:30 PM 30.1533 -94.1042 160° South 113 130 7,000  Descending Houston Center
Sat 06:28:55 PM 30.1453 -94.1006 159° South 105 121 7,100 98 Climbing Houston Center
Sat 06:29:31 PM 30.1250 -94.0936 164° South 104 120 7,100  Level Houston Center
Sat 06:29:56 PM 30.1181 -94.0894 153° Southeast 105 121 7,100  Level Houston Center
Sat 06:30:32 PM 30.0994 -94.0703 138° Southeast 116 133 7,100 -97 Level Houston Center
Sat 06:30:58 PM 30.0944 -94.0644 135° Southeast 112 129 7,000  Descending Houston Center
Sat 06:31:33 PM 30.0742 -94.0472 144° Southeast 98 113 7,100  Climbing Houston Center
Sat 06:32:00 PM 30.0686 -94.0400 132° Southeast 118 136 7,000  Descending Houston Center
Sat 06:32:34 PM 30.0503 -94.0214 139° Southeast 132 152 7,100  Climbing Houston Center
Sat 06:33:01 PM 30.0403 -94.0103 136° Southeast 115 132 7,000  Descending Houston Center
Sat 06:33:35 PM 30.0244 -93.9933 137° Southeast 118 136 7,100 97 Climbing Houston Center
Sat 06:34:03 PM 30.0133 -93.9850 147° Southeast 120 138 7,100 -98 Level Houston Center
Sat 06:34:36 PM 29.9967 -93.9683 139° Southeast 127 146 7,000 -98 Descending Houston Center
Sat 06:35:04 PM 29.9872 -93.9572 134° Southeast 125 144 7,000 98 Level Houston Center
Sat 06:35:37 PM 29.9683 -93.9575 181° South 116 133 7,100 97 Climbing Houston Center
Sat 06:36:06 PM 29.9558 -93.9625 199° South 120 138 7,100  Level Houston Center
Sat 06:36:38 PM 29.9333 -93.9669 190° South 122 140 7,100  Level Houston Center
Sat 06:37:07 PM 29.9211 -93.9697 191° South 122 140 7,100  Level Houston Center
Sat 06:37:39 PM 29.8986 -93.9767 195° South 127 146 7,100 97 Level Houston Center
Sat 06:38:09 PM 29.8869 -93.9786 188° South 126 145 7,200  Climbing Houston Center
Sat 06:38:40 PM 29.8639 -93.9861 196° South 116 133 7,100 -98 Descending Houston Center
Sat 06:39:10 PM 29.8539 -93.9894 196° South 125 144 7,100  Level Houston Center
Sat 06:39:42 PM 29.8311 -93.9953 193° South 112 129 7,100 -97 Level Houston Center
Sat 06:40:12 PM 29.8231 -93.9983 198° South 117 135 7,000  Descending Houston Center
Sat 06:40:43 PM 29.8028 -94.0039 193° South 114 131 7,100 97 Climbing Houston Center
Sat 06:41:14 PM 29.7881 -94.0086 196° South 110 127 7,100 -98 Level Houston Center
Sat 06:41:44 PM 29.7742 -94.0125 194° South 90 104 7,000  Descending Houston Center
Sat 06:42:15 PM 29.7619 -94.0161 194° South 99 114 7,100 98 Climbing Houston Center
Sat 06:42:45 PM 29.7475 -94.0208 196° South 112 129 7,100 -97 Level Houston Center
Sat 06:43:17 PM 29.7331 -94.0258 197° South 108 124 7,000  Descending Houston Center
Sat 06:43:46 PM 29.7153 -94.0325 198° South 118 136 7,100 98 Climbing Houston Center
Sat 06:44:18 PM 29.7008 -94.0342 186° South 117 135 7,100  Level Houston Center
Sat 06:44:47 PM 29.6828 -94.0442 206° Southwest 119 137 7,100  Level Houston Center
Sat 06:45:20 PM 29.6778 -94.0561 244° Southwest 122 140 7,100  Level Houston Center
Sat 06:45:48 PM 29.6669 -94.0750 237° Southwest 112 129 7,100  Level Houston Center
Sat 06:46:21 PM 29.6619 -94.0867 244° Southwest 111 128 7,100  Level Houston Center
Sat 06:46:49 PM 29.6511 -94.1061 237° Southwest 111 128 7,100 -194 Level Houston Center
Sat 06:47:23 PM 29.6461 -94.1181 244° Southwest 113 130 6,900 -393 Descending Houston Center
Sat 06:47:50 PM 29.6353 -94.1369 237° Southwest 125 144 6,700 -393 Descending Houston Center
Sat 06:48:24 PM 29.6292 -94.1522 245° Southwest 127 146 6,500 -393 Descending Houston Center
Sat 06:48:51 PM 29.6183 -94.1778 244° Southwest 127 146 6,300 -387 Descending Houston Center
Sat 06:49:26 PM 29.6108 -94.1903 235° Southwest 125 144 6,100 -393 Descending Houston Center
Sat 06:49:52 PM 29.6006 -94.2089 238° Southwest 121 139 5,900 -393 Descending Houston Center
Sat 06:50:27 PM 29.5925 -94.2253 241° Southwest 132 152 5,700 -387 Descending Houston Center
Sat 06:50:54 PM 29.5814 -94.2475 240° Southwest 133 153 5,500 -387 Descending Houston Center
Sat 06:51:29 PM 29.5736 -94.2636 241° Southwest 138 159 5,300 -500 Descending Houston Center
Sat 06:51:54 PM 29.5619 -94.2861 239° Southwest 141 162 5,000 -295 Descending Houston Center
Sat 06:52:30 PM 29.5519 -94.3064 240° Southwest 122 140 5,000  Level Houston Center
Sat 06:52:55 PM 29.5444 -94.3197 237° Southwest 121 139 5,000  Level Houston Center
Sat 06:53:32 PM 29.5358 -94.3400 244° Southwest 122 140 5,000  Level Houston Center
Sat 06:53:56 PM 29.5292 -94.3553 243° Southwest 124 143 5,000  Level Houston Center
Sat 06:54:33 PM 29.5183 -94.3739 236° Southwest 122 140 5,000  Level Houston Center
Sat 06:54:58 PM 29.5114 -94.3889 242° Southwest 122 140 5,000  Level Houston Center
Sat 06:55:35 PM 29.5011 -94.4086 239° Southwest 124 143 5,000  Level Houston Center
Sat 06:55:59 PM 29.4939 -94.4247 243° Southwest 119 137 5,000  Level Houston Center
Sat 06:56:36 PM 29.4844 -94.4414 237° Southwest 121 139 5,000  Level Houston Center
Sat 06:57:00 PM 29.4761 -94.4583 241° Southwest 121 139 5,000  Level Houston Center
Sat 06:57:38 PM 29.4681 -94.4739 239° Southwest 123 142 5,000  Level Houston Center
Sat 06:58:01 PM 29.4586 -94.4942 242° Southwest 125 144 5,000 98 Level Houston Center
Sat 06:58:39 PM 29.4528 -94.5106 248° West 127 146 5,100  Climbing Houston Center
Sat 06:59:02 PM 29.4503 -94.5361 264° West 136 157 5,000 -97 Descending Houston Center
Sat 06:59:41 PM 29.4475 -94.5539 260° West 135 155 5,000  Level Houston Center
Sat 07:00:03 PM 29.4439 -94.5778 260° West 129 148 5,000  Level Houston Center
Sat 07:00:42 PM 29.4397 -94.6017 259° West 130 150 5,000  Level Houston Center
Sat 07:01:10 PM 29.4356 -94.6219 257° West 130 150 5,000  Level Houston Center
Sat 07:01:44 PM 29.4333 -94.6422 263° West 129 148 5,000  Level Houston Center
Sat 07:02:11 PM 29.4292 -94.6636 257° West 131 151 5,000  Level Houston Center
Sat 07:02:45 PM 29.4261 -94.6833 260° West 131 151 5,000  Level Houston Center
Sat 07:03:12 PM 29.4225 -94.7053 259° West 129 148 5,000 -97 Level Houston Center
Sat 07:03:47 PM 29.4200 -94.7231 261° West 128 147 4,900 -295 Descending Houston Center
Sat 07:04:13 PM 29.4161 -94.7469 259° West 131 151 4,700 -590 Descending Houston Center
Sat 07:04:48 PM 29.4128 -94.7667 259° West 135 155 4,300 -677 Descending Houston Center
Sat 07:05:15 PM 29.4078 -94.7911 257° West 145 167 4,000 -581 Descending Houston Center
Sat 07:05:50 PM 29.4058 -94.8125 264° West 142 163 3,700 -590 Descending Houston Center
Sat 07:06:16 PM 29.4017 -94.8375 259° West 146 168 3,400 -492 Descending Houston Center
Sat 07:06:51 PM 29.3981 -94.8586 259° West 144 166 3,200 -393 Descending Houston Center
Sat 07:07:17 PM 29.3939 -94.8864 260° West 143 165 3,000 -194 Descending Houston Center
Sat 07:07:53 PM 29.3914 -94.9011 259° West 142 163 3,000  Level Houston Center
Sat 07:08:18 PM 29.3869 -94.9258 258° West 119 137 3,000  Level Houston Center
Sat 07:08:54 PM 29.3847 -94.9386 259° West 132 152 3,000  Level Houston Center
Sat 07:09:19 PM 29.3800 -94.9625 257° West 120 138 3,000  Level Houston Center
Sat 07:09:56 PM 29.3775 -94.9825 262° West 122 140 3,000  Level Houston Center
Sat 07:10:20 PM 29.3750 -94.9992 260° West 121 139 3,000  Level Houston Center
Sat 07:10:57 PM 29.3711 -95.0208 258° West 121 139 3,000  Level Houston Center
Sat 07:11:21 PM 29.3686 -95.0408 262° West 117 135 3,000  Level Houston Center
Sat 07:11:59 PM 29.3669 -95.0586 264° West 121 139 3,000  Level Houston Center
Sat 07:12:22 PM 29.3656 -95.0769 265° West 118 136 3,000  Level Houston Center
Sat 07:13:00 PM 29.3633 -95.0961 262° West 119 137 3,000  Level Houston Center
Sat 07:13:23 PM 29.3608 -95.1136 261° West 116 133 3,000  Level Houston Center
Sat 07:14:02 PM 29.3594 -95.1331 265° West 118 136 3,000  Level Houston Center
Sat 07:14:25 PM 29.3581 -95.1522 265° West 118 136 3,000  Level Houston Center
Sat 07:15:03 PM 29.3550 -95.1703 259° West 118 136 3,000  Level Houston Center
Sat 07:15:26 PM 29.3531 -95.1889 263° West 119 137 3,000  Level Houston Center
Sat 07:16:21 PM 29.3500 -95.2228 264° West 116 133 3,000  Level Houston Center
Sat 07:17:06 PM 29.3461 -95.2447 259° West 117 135 3,000  Level Houston Center
Sat 07:17:22 PM 29.3453 -95.2617 267° West 117 135 3,000  Level Houston Center
Sat 07:18:07 PM 29.3414 -95.2817 257° West 118 136 3,000 -197 Level Houston Center
Sat 07:18:23 PM 29.3403 -95.3008 266° West 121 139 2,800 -387 Descending Houston Center
Sat 07:19:09 PM 29.3353 -95.3197 253° West 119 137 2,600 -295 Descending Houston Center
Sat 07:19:24 PM 29.3292 -95.3381 249° West 129 148 2,500 -492 Descending Houston Center
Sat 07:20:10 PM 29.3206 -95.3672 251° West 126 145 2,100 -492 Descending Houston Center
Sat 07:20:25 PM 29.3181 -95.3778 255° West 131 151 2,000 -98 Descending Houston Center
Sat 07:21:11 PM 29.3097 -95.4067 252° West 128 147 2,000  Level Houston Center
Sat 07:21:26 PM 29.3089 -95.4147 263° West 117 135 2,000  Level Houston Center
Sat 07:22:13 PM 29.2925 -95.4319 223° Southwest 114 131 2,000  Level Houston Center
Sat 07:23:14 PM 29.2669 -95.4522 215° Southwest 111 128 2,000 -88 Level Houston Center
Sat 07:24:29 PM 29.2314 -95.4622 194° South 107 123 1,800 -195 Descending Houston Center
Sat 07:25:17 PM 29.2081 -95.4606 176° South 107 123 1,600 -250 Descending Houston Center

Login

Don't have an account? Register now (free) for customized features, flight alerts, and more!